sensor_id;sensor_type;location;lat;lon;timestamp;pressure;altitude;pressure_sealevel;temperature;humidity
74544;BME280;63016;55.030;38.710;2023-04-03T00:01:09;99789.34;;;7.45;61.27
74544;BME280;63016;55.030;38.710;2023-04-03T00:03:36;99793.84;;;7.43;61.77
74544;BME280;63016;55.030;38.710;2023-04-03T00:06:02;99791.56;;;7.40;62.02
74544;BME280;63016;55.030;38.710;2023-04-03T00:08:28;99793.34;;;7.40;61.85
74544;BME280;63016;55.030;38.710;2023-04-03T00:10:56;99793.47;;;7.38;62.01
74544;BME280;63016;55.030;38.710;2023-04-03T00:13:22;99791.84;;;7.37;61.84
74544;BME280;63016;55.030;38.710;2023-04-03T00:15:48;99790.34;;;7.35;61.77
74544;BME280;63016;55.030;38.710;2023-04-03T00:18:13;99798.97;;;7.35;61.61
74544;BME280;63016;55.030;38.710;2023-04-03T00:20:39;99792.13;;;7.34;62.34
74544;BME280;63016;55.030;38.710;2023-04-03T00:23:04;99796.50;;;7.34;62.12
74544;BME280;63016;55.030;38.710;2023-04-03T00:25:30;99796.50;;;7.34;61.85
74544;BME280;63016;55.030;38.710;2023-04-03T00:27:55;99797.47;;;7.33;61.73
74544;BME280;63016;55.030;38.710;2023-04-03T00:30:21;99804.75;;;7.29;62.02
74544;BME280;63016;55.030;38.710;2023-04-03T00:32:51;99793.41;;;7.30;62.21
74544;BME280;63016;55.030;38.710;2023-04-03T00:35:19;99785.53;;;7.22;62.11
74544;BME280;63016;55.030;38.710;2023-04-03T00:37:45;99786.19;;;7.24;61.57
74544;BME280;63016;55.030;38.710;2023-04-03T00:40:13;99790.72;;;7.22;62.10
74544;BME280;63016;55.030;38.710;2023-04-03T00:42:40;99794.94;;;7.23;61.78
74544;BME280;63016;55.030;38.710;2023-04-03T00:47:50;99798.66;;;7.20;61.52
74544;BME280;63016;55.030;38.710;2023-04-03T00:50:16;99798.78;;;7.19;61.39
74544;BME280;63016;55.030;38.710;2023-04-03T00:52:43;99790.19;;;7.18;61.86
74544;BME280;63016;55.030;38.710;2023-04-03T00:55:11;99789.66;;;7.15;61.84
74544;BME280;63016;55.030;38.710;2023-04-03T00:57:37;99790.63;;;7.14;61.42
74544;BME280;63016;55.030;38.710;2023-04-03T01:00:13;99787.22;;;7.13;61.92
74544;BME280;63016;55.030;38.710;2023-04-03T01:02:39;99786.41;;;7.13;62.35
74544;BME280;63016;55.030;38.710;2023-04-03T01:05:08;99788.34;;;7.11;61.84
74544;BME280;63016;55.030;38.710;2023-04-03T01:07:35;99791.06;;;7.09;61.52
74544;BME280;63016;55.030;38.710;2023-04-03T01:10:05;99787.81;;;7.07;61.59
74544;BME280;63016;55.030;38.710;2023-04-03T01:12:34;99787.81;;;7.07;62.00
74544;BME280;63016;55.030;38.710;2023-04-03T01:15:21;99789.44;;;7.08;62.38
74544;BME280;63016;55.030;38.710;2023-04-03T01:17:53;99777.56;;;7.06;61.84
74544;BME280;63016;55.030;38.710;2023-04-03T01:23:33;99780.31;;;7.04;61.97
74544;BME280;63016;55.030;38.710;2023-04-03T01:26:06;99783.22;;;7.01;62.41
74544;BME280;63016;55.030;38.710;2023-04-03T01:28:34;99783.22;;;7.01;62.08
74544;BME280;63016;55.030;38.710;2023-04-03T01:31:13;99778.16;;;7.00;61.87
74544;BME280;63016;55.030;38.710;2023-04-03T01:33:41;99779.94;;;6.99;62.00
74544;BME280;63016;55.030;38.710;2023-04-03T01:36:09;99780.91;;;6.98;61.96
74544;BME280;63016;55.030;38.710;2023-04-03T01:38:35;99777.50;;;6.98;62.22
74544;BME280;63016;55.030;38.710;2023-04-03T01:41:01;99780.09;;;6.98;62.33
74544;BME280;63016;55.030;38.710;2023-04-03T01:43:26;99778.75;;;6.93;62.04
74544;BME280;63016;55.030;38.710;2023-04-03T01:45:52;99780.38;;;6.94;62.26
74544;BME280;63016;55.030;38.710;2023-04-03T01:48:20;99777.94;;;6.93;62.22
74544;BME280;63016;55.030;38.710;2023-04-03T01:50:45;99782.31;;;6.92;61.90
74544;BME280;63016;55.030;38.710;2023-04-03T01:53:11;99777.25;;;6.91;62.01
74544;BME280;63016;55.030;38.710;2023-04-03T01:55:37;99777.41;;;6.89;62.23
74544;BME280;63016;55.030;38.710;2023-04-03T01:58:02;99778.22;;;6.90;62.61
74544;BME280;63016;55.030;38.710;2023-04-03T02:00:28;99788.88;;;6.87;61.92
74544;BME280;63016;55.030;38.710;2023-04-03T02:02:53;99780.94;;;6.88;62.12
74544;BME280;63016;55.030;38.710;2023-04-03T02:05:19;99780.41;;;6.85;62.04
74544;BME280;63016;55.030;38.710;2023-04-03T02:07:44;99784.63;;;6.86;61.97
74544;BME280;63016;55.030;38.710;2023-04-03T02:10:12;99783.97;;;6.84;61.73
74544;BME280;63016;55.030;38.710;2023-04-03T02:12:37;99778.94;;;6.82;62.65
74544;BME280;63016;55.030;38.710;2023-04-03T02:15:06;99779.22;;;6.79;62.20
74544;BME280;63016;55.030;38.710;2023-04-03T02:17:32;99781.81;;;6.79;61.82
74544;BME280;63016;55.030;38.710;2023-04-03T02:19:57;99783.75;;;6.77;61.98
74544;BME280;63016;55.030;38.710;2023-04-03T02:22:23;99785.66;;;6.75;62.28
74544;BME280;63016;55.030;38.710;2023-04-03T02:24:48;99780.78;;;6.72;62.16
74544;BME280;63016;55.030;38.710;2023-04-03T02:27:14;99780.88;;;6.70;61.80
74544;BME280;63016;55.030;38.710;2023-04-03T02:29:39;99783.91;;;6.66;62.10
74544;BME280;63016;55.030;38.710;2023-04-03T02:32:05;99787.19;;;6.68;61.62
74544;BME280;63016;55.030;38.710;2023-04-03T02:34:31;99783.78;;;6.67;62.05
74544;BME280;63016;55.030;38.710;2023-04-03T02:36:56;99779.69;;;6.65;62.50
74544;BME280;63016;55.030;38.710;2023-04-03T02:39:22;99790.06;;;6.65;62.62
74544;BME280;63016;55.030;38.710;2023-04-03T02:41:47;99782.56;;;6.62;62.25
74544;BME280;63016;55.030;38.710;2023-04-03T02:44:13;99786.81;;;6.63;62.59
74544;BME280;63016;55.030;38.710;2023-04-03T02:46:39;99775.91;;;6.59;62.07
74544;BME280;63016;55.030;38.710;2023-04-03T02:49:05;99781.91;;;6.60;62.12
74544;BME280;63016;55.030;38.710;2023-04-03T02:51:31;99777.81;;;6.57;62.42
74544;BME280;63016;55.030;38.710;2023-04-03T02:53:56;99786.53;;;6.56;62.26
74544;BME280;63016;55.030;38.710;2023-04-03T02:56:21;99789.94;;;6.57;62.12
74544;BME280;63016;55.030;38.710;2023-04-03T02:58:47;99796.91;;;6.56;62.33
74544;BME280;63016;55.030;38.710;2023-04-03T03:01:13;99789.56;;;6.52;62.84
74544;BME280;63016;55.030;38.710;2023-04-03T03:03:39;99790.91;;;6.56;62.00
74544;BME280;63016;55.030;38.710;2023-04-03T03:06:09;99803.06;;;6.55;62.39
74544;BME280;63016;55.030;38.710;2023-04-03T03:08:35;99797.06;;;6.55;62.35
74544;BME280;63016;55.030;38.710;2023-04-03T03:11:02;99804.19;;;6.53;62.37
74544;BME280;63016;55.030;38.710;2023-04-03T03:13:28;99805.00;;;6.53;62.45
74544;BME280;63016;55.030;38.710;2023-04-03T03:15:53;99796.25;;;6.54;62.61
74544;BME280;63016;55.030;38.710;2023-04-03T03:18:19;99792.69;;;6.55;62.42
74544;BME280;63016;55.030;38.710;2023-04-03T03:20:45;99801.28;;;6.56;62.51
74544;BME280;63016;55.030;38.710;2023-04-03T03:23:10;99802.09;;;6.56;62.38
74544;BME280;63016;55.030;38.710;2023-04-03T03:25:40;99799.66;;;6.55;62.56
74544;BME280;63016;55.030;38.710;2023-04-03T03:28:06;99801.13;;;6.57;62.84
74544;BME280;63016;55.030;38.710;2023-04-03T03:30:32;99807.97;;;6.58;62.55
74544;BME280;63016;55.030;38.710;2023-04-03T03:32:58;99807.16;;;6.58;62.77
74544;BME280;63016;55.030;38.710;2023-04-03T03:35:23;99802.63;;;6.60;62.50
74544;BME280;63016;55.030;38.710;2023-04-03T03:37:49;99803.44;;;6.60;62.32
74544;BME280;63016;55.030;38.710;2023-04-03T03:40:14;99805.22;;;6.60;62.88
74544;BME280;63016;55.030;38.710;2023-04-03T03:42:40;99804.13;;;6.62;62.80
74544;BME280;63016;55.030;38.710;2023-04-03T03:45:06;99805.63;;;6.65;62.90
74544;BME280;63016;55.030;38.710;2023-04-03T03:47:32;99804.81;;;6.64;62.55
74544;BME280;63016;55.030;38.710;2023-04-03T03:49:57;99804.00;;;6.64;63.10
74544;BME280;63016;55.030;38.710;2023-04-03T03:52:23;99803.03;;;6.65;62.66
74544;BME280;63016;55.030;38.710;2023-04-03T03:54:48;99804.53;;;6.67;62.45
74544;BME280;63016;55.030;38.710;2023-04-03T03:57:14;99811.19;;;6.70;62.77
74544;BME280;63016;55.030;38.710;2023-04-03T03:59:40;99811.03;;;6.72;63.00
74544;BME280;63016;55.030;38.710;2023-04-03T04:02:07;99811.03;;;6.72;62.86
74544;BME280;63016;55.030;38.710;2023-04-03T04:04:33;99814.31;;;6.74;62.63
74544;BME280;63016;55.030;38.710;2023-04-03T04:06:58;99808.03;;;6.76;62.98
74544;BME280;63016;55.030;38.710;2023-04-03T04:09:26;99820.88;;;6.78;62.94
74544;BME280;63016;55.030;38.710;2023-04-03T04:11:51;99805.16;;;6.79;62.72
74544;BME280;63016;55.030;38.710;2023-04-03T04:14:17;99808.13;;;6.84;63.11
74544;BME280;63016;55.030;38.710;2023-04-03T04:16:42;99804.13;;;6.90;63.73
74544;BME280;63016;55.030;38.710;2023-04-03T04:19:08;99804.41;;;6.97;63.67
74544;BME280;63016;55.030;38.710;2023-04-03T04:21:34;99800.53;;;7.01;63.75
74544;BME280;63016;55.030;38.710;2023-04-03T04:24:00;99809.66;;;7.05;63.21
74544;BME280;63016;55.030;38.710;2023-04-03T04:26:26;99810.34;;;7.07;63.59
74544;BME280;63016;55.030;38.710;2023-04-03T04:28:51;99804.47;;;7.05;63.65
74544;BME280;63016;55.030;38.710;2023-04-03T04:31:17;99812.78;;;7.08;63.44
74544;BME280;63016;55.030;38.710;2023-04-03T04:33:42;99814.28;;;7.11;63.83
74544;BME280;63016;55.030;38.710;2023-04-03T04:36:08;99807.81;;;7.15;64.16
74544;BME280;63016;55.030;38.710;2023-04-03T04:38:33;99812.97;;;7.25;63.88
74544;BME280;63016;55.030;38.710;2023-04-03T04:40:59;99813.50;;;7.28;63.88
74544;BME280;63016;55.030;38.710;2023-04-03T04:43:24;99807.34;;;7.29;63.73
74544;BME280;63016;55.030;38.710;2023-04-03T04:46:00;99804.19;;;7.35;64.08
74544;BME280;63016;55.030;38.710;2023-04-03T04:48:26;99798.66;;;7.38;64.01
74544;BME280;63016;55.030;38.710;2023-04-03T04:50:52;99804.22;;;7.43;63.92
74544;BME280;63016;55.030;38.710;2023-04-03T04:53:17;99808.69;;;7.51;64.11
74544;BME280;63016;55.030;38.710;2023-04-03T04:55:42;99809.88;;;7.57;64.19
74544;BME280;63016;55.030;38.710;2023-04-03T04:58:08;99805.88;;;7.62;63.99
74544;BME280;63016;55.030;38.710;2023-04-03T05:00:33;99808.03;;;7.67;63.75
74544;BME280;63016;55.030;38.710;2023-04-03T05:02:59;99810.34;;;7.70;64.10
74544;BME280;63016;55.030;38.710;2023-04-03T05:05:24;99824.50;;;7.76;64.17
74544;BME280;63016;55.030;38.710;2023-04-03T05:07:50;99818.88;;;7.80;64.06
74544;BME280;63016;55.030;38.710;2023-04-03T05:10:15;99814.47;;;7.81;64.45
74544;BME280;63016;55.030;38.710;2023-04-03T05:12:41;99820.19;;;7.84;63.95
74544;BME280;63016;55.030;38.710;2023-04-03T05:15:07;99818.94;;;7.88;64.70
74544;BME280;63016;55.030;38.710;2023-04-03T05:17:32;99812.97;;;7.96;64.95
74544;BME280;63016;55.030;38.710;2023-04-03T05:19:58;99818.09;;;8.06;64.33
74544;BME280;63016;55.030;38.710;2023-04-03T05:22:42;99822.09;;;8.18;65.29
74544;BME280;63016;55.030;38.710;2023-04-03T05:25:08;99815.31;;;8.25;64.84
74544;BME280;63016;55.030;38.710;2023-04-03T05:27:34;99813.75;;;8.32;65.39
74544;BME280;63016;55.030;38.710;2023-04-03T05:32:44;99817.78;;;8.53;65.13
74544;BME280;63016;55.030;38.710;2023-04-03T05:35:11;99814.09;;;8.63;64.88
74544;BME280;63016;55.030;38.710;2023-04-03T05:37:55;99812.03;;;8.75;65.21
74544;BME280;63016;55.030;38.710;2023-04-03T05:40:21;99809.81;;;8.88;65.64
74544;BME280;63016;55.030;38.710;2023-04-03T05:42:46;99811.31;;;8.99;65.24
74544;BME280;63016;55.030;38.710;2023-04-03T05:45:12;99811.06;;;9.10;65.04
74544;BME280;63016;55.030;38.710;2023-04-03T05:47:38;99820.34;;;9.21;65.74
74544;BME280;63016;55.030;38.710;2023-04-03T05:50:04;99822.97;;;9.29;65.24
74544;BME280;63016;55.030;38.710;2023-04-03T05:52:33;99822.69;;;9.40;64.76
74544;BME280;63016;55.030;38.710;2023-04-03T05:55:03;99825.13;;;9.50;64.81
74544;BME280;63016;55.030;38.710;2023-04-03T05:57:29;99821.56;;;9.59;64.40
74544;BME280;63016;55.030;38.710;2023-04-03T05:59:54;99817.81;;;9.62;64.25
74544;BME280;63016;55.030;38.710;2023-04-03T06:02:24;99821.59;;;9.67;64.81
74544;BME280;63016;55.030;38.710;2023-04-03T06:04:50;99819.16;;;9.74;64.21
74544;BME280;63016;55.030;38.710;2023-04-03T06:07:18;99828.09;;;9.79;64.33
74544;BME280;63016;55.030;38.710;2023-04-03T06:10:03;99824.69;;;9.87;65.13
74544;BME280;63016;55.030;38.710;2023-04-03T06:12:29;99826.47;;;9.95;65.34
74544;BME280;63016;55.030;38.710;2023-04-03T06:14:55;99838.22;;;10.07;64.77
74544;BME280;63016;55.030;38.710;2023-04-03T06:17:21;99832.16;;;10.15;64.49
74544;BME280;63016;55.030;38.710;2023-04-03T06:19:47;99832.16;;;10.23;64.83
74544;BME280;63016;55.030;38.710;2023-04-03T06:22:13;99837.25;;;10.33;64.54
74544;BME280;63016;55.030;38.710;2023-04-03T06:24:39;99843.59;;;10.38;64.27
74544;BME280;63016;55.030;38.710;2023-04-03T06:27:05;99840.34;;;10.44;64.98
74544;BME280;63016;55.030;38.710;2023-04-03T06:29:31;99847.47;;;10.59;65.09
74544;BME280;63016;55.030;38.710;2023-04-03T06:31:56;99842.22;;;10.67;64.72
74544;BME280;63016;55.030;38.710;2023-04-03T06:34:24;99837.00;;;10.75;64.94
74544;BME280;63016;55.030;38.710;2023-04-03T06:36:50;99838.13;;;10.80;64.58
74544;BME280;63016;55.030;38.710;2023-04-03T06:39:19;99838.25;;;10.87;64.34
74544;BME280;63016;55.030;38.710;2023-04-03T06:41:51;99846.88;;;10.96;64.64
74544;BME280;63016;55.030;38.710;2023-04-03T06:44:17;99845.22;;;11.03;64.27
74544;BME280;63016;55.030;38.710;2023-04-03T06:46:43;99847.31;;;11.07;64.20
74544;BME280;63016;55.030;38.710;2023-04-03T06:49:10;99840.25;;;11.16;65.34
74544;BME280;63016;55.030;38.710;2023-04-03T06:51:36;99852.59;;;11.30;65.29
74544;BME280;63016;55.030;38.710;2023-04-03T06:54:03;99846.81;;;11.43;64.88
74544;BME280;63016;55.030;38.710;2023-04-03T06:56:29;99850.00;;;11.53;64.94
74544;BME280;63016;55.030;38.710;2023-04-03T06:58:55;99844.56;;;11.63;65.17
74544;BME280;63016;55.030;38.710;2023-04-03T07:01:25;99847.44;;;11.76;65.10
74544;BME280;63016;55.030;38.710;2023-04-03T07:03:51;99849.84;;;11.86;65.12
74544;BME280;63016;55.030;38.710;2023-04-03T07:06:18;99844.56;;;11.94;64.56
74544;BME280;63016;55.030;38.710;2023-04-03T07:08:45;99858.34;;;12.03;64.34
74544;BME280;63016;55.030;38.710;2023-04-03T07:11:12;99852.59;;;12.07;64.55
74544;BME280;63016;55.030;38.710;2023-04-03T07:13:38;99851.06;;;12.13;64.66
74544;BME280;63016;55.030;38.710;2023-04-03T07:16:04;99844.50;;;12.17;64.46
74544;BME280;63016;55.030;38.710;2023-04-03T07:18:31;99854.38;;;12.30;64.38
74544;BME280;63016;55.030;38.710;2023-04-03T07:20:57;99853.66;;;12.36;64.32
74544;BME280;63016;55.030;38.710;2023-04-03T07:23:23;99849.34;;;12.43;64.61
74544;BME280;63016;55.030;38.710;2023-04-03T07:25:50;99854.50;;;12.51;64.38
74544;BME280;63016;55.030;38.710;2023-04-03T07:28:17;99855.69;;;12.64;64.46
74544;BME280;63016;55.030;38.710;2023-04-03T07:30:54;99858.84;;;12.74;64.55
74544;BME280;63016;55.030;38.710;2023-04-03T07:33:24;99858.59;;;12.83;64.54
74544;BME280;63016;55.030;38.710;2023-04-03T07:35:49;99856.84;;;12.91;64.63
74544;BME280;63016;55.030;38.710;2023-04-03T07:38:15;99861.00;;;13.00;64.35
74544;BME280;63016;55.030;38.710;2023-04-03T07:40:48;99862.72;;;13.07;64.39
74544;BME280;63016;55.030;38.710;2023-04-03T07:43:18;99855.59;;;13.16;64.32
74544;BME280;63016;55.030;38.710;2023-04-03T07:45:45;99864.81;;;13.27;64.41
74544;BME280;63016;55.030;38.710;2023-04-03T07:48:12;99852.56;;;13.34;64.34
74544;BME280;63016;55.030;38.710;2023-04-03T07:50:40;99865.59;;;13.42;64.24
74544;BME280;63016;55.030;38.710;2023-04-03T07:53:05;99878.59;;;13.50;63.89
74544;BME280;63016;55.030;38.710;2023-04-03T07:55:32;99872.78;;;13.55;64.14
74544;BME280;63016;55.030;38.710;2023-04-03T07:57:57;99875.47;;;13.61;63.82
74544;BME280;63016;55.030;38.710;2023-04-03T08:00:23;99869.47;;;13.68;63.78
74544;BME280;63016;55.030;38.710;2023-04-03T08:02:48;99862.69;;;13.73;63.57
74544;BME280;63016;55.030;38.710;2023-04-03T08:05:18;99865.56;;;13.78;63.61
74544;BME280;63016;55.030;38.710;2023-04-03T08:07:44;99864.81;;;13.84;63.55
74544;BME280;63016;55.030;38.710;2023-04-03T08:10:09;99868.31;;;13.92;63.63
74544;BME280;63016;55.030;38.710;2023-04-03T08:12:35;99866.75;;;13.97;63.38
74544;BME280;63016;55.030;38.710;2023-04-03T08:15:03;99852.88;;;14.03;64.45
74544;BME280;63016;55.030;38.710;2023-04-03T08:17:29;99865.13;;;14.18;64.38
74544;BME280;63016;55.030;38.710;2023-04-03T08:19:54;99866.22;;;14.30;64.04
74544;BME280;63016;55.030;38.710;2023-04-03T08:22:20;99858.22;;;14.38;63.58
74544;BME280;63016;55.030;38.710;2023-04-03T08:24:46;99865.94;;;14.46;63.94
74544;BME280;63016;55.030;38.710;2023-04-03T08:27:11;99869.81;;;14.50;63.20
74544;BME280;63016;55.030;38.710;2023-04-03T08:29:37;99869.25;;;14.55;63.32
74544;BME280;63016;55.030;38.710;2023-04-03T08:32:06;99871.28;;;14.59;63.19
74544;BME280;63016;55.030;38.710;2023-04-03T08:34:32;99862.66;;;14.65;63.27
74544;BME280;63016;55.030;38.710;2023-04-03T08:37:02;99863.06;;;14.69;63.26
74544;BME280;63016;55.030;38.710;2023-04-03T08:39:27;99868.19;;;14.77;63.34
74544;BME280;63016;55.030;38.710;2023-04-03T08:41:55;99870.84;;;14.84;63.16
74544;BME280;63016;55.030;38.710;2023-04-03T08:47:38;99868.50;;;14.96;63.30
74544;BME280;63016;55.030;38.710;2023-04-03T08:50:07;99871.16;;;15.02;63.45
74544;BME280;63016;55.030;38.710;2023-04-03T08:52:37;99873.03;;;15.15;64.49
74544;BME280;63016;55.030;38.710;2023-04-03T08:55:19;99866.19;;;15.21;63.26
74544;BME280;63016;55.030;38.710;2023-04-03T08:57:49;99870.03;;;15.25;63.38
74544;BME280;63016;55.030;38.710;2023-04-03T09:00:20;99873.69;;;15.30;63.10
74544;BME280;63016;55.030;38.710;2023-04-03T09:02:48;99872.91;;;15.36;63.14
74544;BME280;63016;55.030;38.710;2023-04-03T09:08:04;99872.75;;;15.51;62.50
74544;BME280;63016;55.030;38.710;2023-04-03T09:10:34;99870.34;;;15.56;62.79
74544;BME280;63016;55.030;38.710;2023-04-03T09:13:13;99871.56;;;15.60;61.91
74544;BME280;63016;55.030;38.710;2023-04-03T09:15:46;99859.41;;;15.53;62.26
74544;BME280;63016;55.030;38.710;2023-04-03T09:18:26;99881.34;;;15.73;62.30
74544;BME280;63016;55.030;38.710;2023-04-03T09:21:45;99877.69;;;15.81;62.69
74544;BME280;63016;55.030;38.710;2023-04-03T09:24:09;99874.69;;;15.84;62.22
74544;BME280;63016;55.030;38.710;2023-04-03T09:26:58;99879.34;;;15.88;62.49
74544;BME280;63016;55.030;38.710;2023-04-03T09:29:26;99874.88;;;15.89;62.17
74544;BME280;63016;55.030;38.710;2023-04-03T09:32:00;99883.78;;;15.94;61.46
74544;BME280;63016;55.030;38.710;2023-04-03T09:34:28;99876.91;;;15.93;62.09
74544;BME280;63016;55.030;38.710;2023-04-03T09:37:00;99874.91;;;15.96;62.10
74544;BME280;63016;55.030;38.710;2023-04-03T09:39:32;99870.47;;;15.96;62.00
74544;BME280;63016;55.030;38.710;2023-04-03T09:44:30;99868.63;;;16.10;62.03
74544;BME280;63016;55.030;38.710;2023-04-03T09:46:56;99868.03;;;16.14;61.54
74544;BME280;63016;55.030;38.710;2023-04-03T09:49:22;99867.03;;;16.15;61.65
74544;BME280;63016;55.030;38.710;2023-04-03T09:51:48;99868.03;;;16.21;61.88
74544;BME280;63016;55.030;38.710;2023-04-03T09:54:29;99854.25;;;16.26;61.67
74544;BME280;63016;55.030;38.710;2023-04-03T09:56:58;99867.63;;;16.31;61.94
74544;BME280;63016;55.030;38.710;2023-04-03T09:59:26;99863.97;;;16.38;61.81
74544;BME280;63016;55.030;38.710;2023-04-03T10:02:39;99861.13;;;16.47;62.75
74544;BME280;63016;55.030;38.710;2023-04-03T10:05:27;99860.50;;;16.51;62.03
74544;BME280;63016;55.030;38.710;2023-04-03T10:10:39;99848.56;;;16.55;60.93
74544;BME280;63016;55.030;38.710;2023-04-03T10:13:12;99854.63;;;16.56;60.75
74544;BME280;63016;55.030;38.710;2023-04-03T10:15:51;99861.94;;;16.54;61.16
74544;BME280;63016;55.030;38.710;2023-04-03T10:21:04;99861.53;;;16.63;60.93
74544;BME280;63016;55.030;38.710;2023-04-03T10:23:45;99862.72;;;16.67;60.71
74544;BME280;63016;55.030;38.710;2023-04-03T10:34:42;99860.06;;;16.67;60.58
74544;BME280;63016;55.030;38.710;2023-04-03T10:39:53;99870.84;;;16.73;59.97
74544;BME280;63016;55.030;38.710;2023-04-03T10:42:36;99862.53;;;16.76;60.20
74544;BME280;63016;55.030;38.710;2023-04-03T10:51:29;99859.47;;;16.65;60.30
74544;BME280;63016;55.030;38.710;2023-04-03T10:54:13;99867.16;;;16.67;59.93
74544;BME280;63016;55.030;38.710;2023-04-03T10:56:53;99869.59;;;16.62;59.66
74544;BME280;63016;55.030;38.710;2023-04-03T10:59:26;99865.16;;;16.62;59.77
74544;BME280;63016;55.030;38.710;2023-04-03T11:02:22;99867.56;;;16.70;61.12
74544;BME280;63016;55.030;38.710;2023-04-03T11:04:53;99875.91;;;16.74;59.85
74544;BME280;63016;55.030;38.710;2023-04-03T11:07:23;99869.00;;;16.80;60.03
74544;BME280;63016;55.030;38.710;2023-04-03T11:10:00;99871.63;;;16.86;59.71
74544;BME280;63016;55.030;38.710;2023-04-03T11:12:41;99858.66;;;16.85;61.19
74544;BME280;63016;55.030;38.710;2023-04-03T11:15:15;99864.28;;;16.95;60.33
74544;BME280;63016;55.030;38.710;2023-04-03T11:17:46;99866.91;;;17.08;60.34
74544;BME280;63016;55.030;38.710;2023-04-03T11:22:58;99860.34;;;17.24;59.56
74544;BME280;63016;55.030;38.710;2023-04-03T11:25:29;99865.22;;;17.20;59.03
74544;BME280;63016;55.030;38.710;2023-04-03T11:28:09;99870.13;;;17.17;59.09
74544;BME280;63016;55.030;38.710;2023-04-03T11:36:07;99863.47;;;17.01;58.52
74544;BME280;63016;55.030;38.710;2023-04-03T11:38:42;99864.09;;;16.96;58.61
74544;BME280;63016;55.030;38.710;2023-04-03T11:41:09;99862.28;;;16.90;58.68
74544;BME280;63016;55.030;38.710;2023-04-03T11:43:41;99868.78;;;16.88;58.69
74544;BME280;63016;55.030;38.710;2023-04-03T11:46:08;99868.34;;;16.91;59.21
74544;BME280;63016;55.030;38.710;2023-04-03T11:51:01;99857.81;;;16.91;58.83
74544;BME280;63016;55.030;38.710;2023-04-03T11:53:30;99855.63;;;16.88;58.98
74544;BME280;63016;55.030;38.710;2023-04-03T11:55:58;99858.81;;;16.96;59.18
74544;BME280;63016;55.030;38.710;2023-04-03T11:58:30;99865.09;;;17.02;59.15
74544;BME280;63016;55.030;38.710;2023-04-03T12:01:05;99864.25;;;17.02;58.78
74544;BME280;63016;55.030;38.710;2023-04-03T12:16:28;99855.84;;;16.80;58.40
74544;BME280;63016;55.030;38.710;2023-04-03T12:21:20;99856.03;;;16.72;57.95
74544;BME280;63016;55.030;38.710;2023-04-03T12:26:47;99855.84;;;16.73;59.45
74544;BME280;63016;55.030;38.710;2023-04-03T12:29:24;99851.41;;;16.74;57.93
74544;BME280;63016;55.030;38.710;2023-04-03T12:46:37;99840.03;;;16.66;57.36
74544;BME280;63016;55.030;38.710;2023-04-03T12:48:47;99841.44;;;16.62;57.89
74544;BME280;63016;55.030;38.710;2023-04-03T12:51:21;99833.16;;;16.59;57.52
74544;BME280;63016;55.030;38.710;2023-04-03T12:53:49;99842.47;;;16.61;57.62
74544;BME280;63016;55.030;38.710;2023-04-03T12:56:27;99840.44;;;16.63;57.53
74544;BME280;63016;55.030;38.710;2023-04-03T12:58:54;99843.50;;;16.60;57.60
74544;BME280;63016;55.030;38.710;2023-04-03T13:01:26;99839.63;;;16.56;57.15
74544;BME280;63016;55.030;38.710;2023-04-03T13:03:54;99845.31;;;16.53;57.16
74544;BME280;63016;55.030;38.710;2023-04-03T13:06:27;99839.84;;;16.48;57.15
74544;BME280;63016;55.030;38.710;2023-04-03T13:09:00;99832.19;;;16.40;57.00
74544;BME280;63016;55.030;38.710;2023-04-03T13:11:37;99834.00;;;16.39;57.49
74544;BME280;63016;55.030;38.710;2023-04-03T13:14:15;99833.81;;;16.34;57.02
74544;BME280;63016;55.030;38.710;2023-04-03T13:16:41;99832.78;;;16.29;57.42
74544;BME280;63016;55.030;38.710;2023-04-03T13:19:16;99836.44;;;16.28;57.18
74544;BME280;63016;55.030;38.710;2023-04-03T13:21:41;99838.03;;;16.29;57.36
74544;BME280;63016;55.030;38.710;2023-04-03T13:24:09;99833.19;;;16.32;57.80
74544;BME280;63016;55.030;38.710;2023-04-03T13:26:36;99836.81;;;16.38;57.67
74544;BME280;63016;55.030;38.710;2023-04-03T13:29:14;99837.44;;;16.40;57.21
74544;BME280;63016;55.030;38.710;2023-04-03T13:31:44;99834.38;;;16.43;57.93
74544;BME280;63016;55.030;38.710;2023-04-03T13:36:41;99827.91;;;16.45;57.31
74544;BME280;63016;55.030;38.710;2023-04-03T13:41:40;99827.91;;;16.39;57.21
74544;BME280;63016;55.030;38.710;2023-04-03T13:44:27;99828.31;;;16.42;58.24
74544;BME280;63016;55.030;38.710;2023-04-03T13:49:36;99839.47;;;16.44;59.31
74544;BME280;63016;55.030;38.710;2023-04-03T13:52:33;99825.47;;;16.37;57.95
74544;BME280;63016;55.030;38.710;2023-04-03T13:55:30;99823.47;;;16.33;57.86
74544;BME280;63016;55.030;38.710;2023-04-03T14:00:48;99825.31;;;16.26;57.44
74544;BME280;63016;55.030;38.710;2023-04-03T14:03:31;99822.69;;;16.26;56.50
74544;BME280;63016;55.030;38.710;2023-04-03T14:05:57;99821.06;;;16.25;57.22
74544;BME280;63016;55.030;38.710;2023-04-03T14:08:23;99812.16;;;16.26;56.57
74544;BME280;63016;55.030;38.710;2023-04-03T14:10:49;99816.19;;;16.22;56.82
74544;BME280;63016;55.030;38.710;2023-04-03T14:13:18;99814.59;;;16.21;56.72
74544;BME280;63016;55.030;38.710;2023-04-03T14:15:45;99813.56;;;16.22;56.71
74544;BME280;63016;55.030;38.710;2023-04-03T14:18:18;99819.22;;;16.18;56.27
74544;BME280;63016;55.030;38.710;2023-04-03T14:20:44;99811.31;;;16.18;56.24
74544;BME280;63016;55.030;38.710;2023-04-03T14:23:10;99800.41;;;16.08;56.23
74544;BME280;63016;55.030;38.710;2023-04-03T14:25:36;99812.97;;;16.13;56.33
74544;BME280;63016;55.030;38.710;2023-04-03T14:28:17;99813.16;;;16.11;56.33
74544;BME280;63016;55.030;38.710;2023-04-03T14:30:42;99810.53;;;16.11;55.85
74544;BME280;63016;55.030;38.710;2023-04-03T14:33:13;99811.75;;;16.09;55.99
74544;BME280;63016;55.030;38.710;2023-04-03T14:35:39;99815.38;;;16.08;56.78
74544;BME280;63016;55.030;38.710;2023-04-03T14:38:20;99813.56;;;16.08;55.96